sensor_id;sensor_type;location;lat;lon;timestamp;pressure;altitude;pressure_sealevel;temperature;humidity
36664;BME280;53333;51.976;20.144;2022-08-19T00:00:48;99782.03;;;23.99;60.55
36664;BME280;53333;51.976;20.144;2022-08-19T00:03:27;99785.94;;;23.96;60.72
36664;BME280;53333;51.976;20.144;2022-08-19T00:06:03;99789.00;;;23.93;60.52
36664;BME280;53333;51.976;20.144;2022-08-19T00:08:37;99786.44;;;23.91;60.68
36664;BME280;53333;51.976;20.144;2022-08-19T00:11:16;99786.78;;;23.88;60.77
36664;BME280;53333;51.976;20.144;2022-08-19T00:13:58;99795.13;;;23.87;60.72
36664;BME280;53333;51.976;20.144;2022-08-19T00:16:34;99802.47;;;23.86;60.66
36664;BME280;53333;51.976;20.144;2022-08-19T00:19:08;99799.91;;;23.85;61.03
36664;BME280;53333;51.976;20.144;2022-08-19T00:21:44;99799.22;;;23.83;61.18
36664;BME280;53333;51.976;20.144;2022-08-19T00:24:20;99797.66;;;23.80;60.84
36664;BME280;53333;51.976;20.144;2022-08-19T00:26:55;99787.97;;;23.78;61.42
36664;BME280;53333;51.976;20.144;2022-08-19T00:29:53;99785.41;;;23.76;61.17
36664;BME280;53333;51.976;20.144;2022-08-19T00:32:29;99780.47;;;23.71;61.16
36664;BME280;53333;51.976;20.144;2022-08-19T00:35:08;99771.78;;;23.68;61.45
36664;BME280;53333;51.976;20.144;2022-08-19T00:37:42;99773.81;;;23.66;61.38
36664;BME280;53333;51.976;20.144;2022-08-19T00:40:17;99777.56;;;23.65;61.63
36664;BME280;53333;51.976;20.144;2022-08-19T00:42:52;99777.91;;;23.62;61.49
36664;BME280;53333;51.976;20.144;2022-08-19T00:45:28;99767.34;;;23.58;61.53
36664;BME280;53333;51.976;20.144;2022-08-19T00:48:07;99772.78;;;23.58;61.43
36664;BME280;53333;51.976;20.144;2022-08-19T00:50:48;99765.78;;;23.56;61.95
36664;BME280;53333;51.976;20.144;2022-08-19T00:53:26;99766.13;;;23.53;62.03
36664;BME280;53333;51.976;20.144;2022-08-19T00:56:06;99762.72;;;23.51;61.69
36664;BME280;53333;51.976;20.144;2022-08-19T00:58:40;99760.34;;;23.48;61.90
36664;BME280;53333;51.976;20.144;2022-08-19T01:01:16;99755.22;;;23.45;62.03
36664;BME280;53333;51.976;20.144;2022-08-19T01:03:50;99769.00;;;23.43;62.50
36664;BME280;53333;51.976;20.144;2022-08-19T01:06:30;99763.22;;;23.38;62.46
36664;BME280;53333;51.976;20.144;2022-08-19T01:09:04;99766.28;;;23.35;62.28
36664;BME280;53333;51.976;20.144;2022-08-19T01:11:41;99765.75;;;23.31;62.85
36664;BME280;53333;51.976;20.144;2022-08-19T01:14:18;99774.28;;;23.28;62.97
36664;BME280;53333;51.976;20.144;2022-08-19T01:16:55;99771.72;;;23.27;62.93
36664;BME280;53333;51.976;20.144;2022-08-19T01:19:33;99764.03;;;23.22;62.90
36664;BME280;53333;51.976;20.144;2022-08-19T01:22:19;99766.25;;;23.18;63.14
36664;BME280;53333;51.976;20.144;2022-08-19T01:25:09;99771.31;;;23.13;63.39
36664;BME280;53333;51.976;20.144;2022-08-19T01:27:48;99769.94;;;23.09;63.32
36664;BME280;53333;51.976;20.144;2022-08-19T01:30:28;99772.13;;;23.06;63.58
36664;BME280;53333;51.976;20.144;2022-08-19T01:33:05;99761.91;;;22.99;63.51
36664;BME280;53333;51.976;20.144;2022-08-19T01:35:39;99763.22;;;22.95;63.38
36664;BME280;53333;51.976;20.144;2022-08-19T01:38:22;99757.25;;;22.92;63.62
36664;BME280;53333;51.976;20.144;2022-08-19T01:40:59;99751.31;;;22.88;63.80
36664;BME280;53333;51.976;20.144;2022-08-19T01:43:40;99756.03;;;22.86;63.97
36664;BME280;53333;51.976;20.144;2022-08-19T01:46:34;99760.63;;;22.85;63.64
36664;BME280;53333;51.976;20.144;2022-08-19T01:49:10;99760.97;;;22.82;64.21
36664;BME280;53333;51.976;20.144;2022-08-19T01:51:45;99761.28;;;22.79;64.10
36664;BME280;53333;51.976;20.144;2022-08-19T01:54:20;99758.91;;;22.76;64.46
36664;BME280;53333;51.976;20.144;2022-08-19T01:57:06;99762.47;;;22.77;64.14
36664;BME280;53333;51.976;20.144;2022-08-19T01:59:42;99761.09;;;22.73;64.23
36664;BME280;53333;51.976;20.144;2022-08-19T02:02:21;99761.09;;;22.73;64.59
36664;BME280;53333;51.976;20.144;2022-08-19T02:04:55;99763.81;;;22.73;64.12
36664;BME280;53333;51.976;20.144;2022-08-19T02:07:28;99769.25;;;22.73;64.33
36664;BME280;53333;51.976;20.144;2022-08-19T02:10:03;99760.59;;;22.69;64.69
36664;BME280;53333;51.976;20.144;2022-08-19T02:12:45;99749.69;;;22.69;64.35
36664;BME280;53333;51.976;20.144;2022-08-19T02:15:19;99738.97;;;22.67;64.54
36664;BME280;53333;51.976;20.144;2022-08-19T02:17:53;99739.13;;;22.66;64.69
36664;BME280;53333;51.976;20.144;2022-08-19T02:20:27;99739.28;;;22.64;64.69
36664;BME280;53333;51.976;20.144;2022-08-19T02:23:00;99738.41;;;22.64;64.43
36664;BME280;53333;51.976;20.144;2022-08-19T02:25:34;99737.75;;;22.62;64.84
36664;BME280;53333;51.976;20.144;2022-08-19T02:28:09;99736.06;;;22.61;64.47
36664;BME280;53333;51.976;20.144;2022-08-19T02:30:48;99737.22;;;22.58;64.88
36664;BME280;53333;51.976;20.144;2022-08-19T02:33:22;99739.09;;;22.58;64.71
36664;BME280;53333;51.976;20.144;2022-08-19T02:35:56;99741.81;;;22.58;64.92
36664;BME280;53333;51.976;20.144;2022-08-19T02:38:29;99731.94;;;22.57;64.71
36664;BME280;53333;51.976;20.144;2022-08-19T02:41:04;99735.66;;;22.56;64.98
36664;BME280;53333;51.976;20.144;2022-08-19T02:43:40;99733.97;;;22.55;64.71
36664;BME280;53333;51.976;20.144;2022-08-19T02:46:34;99739.59;;;22.53;64.72
36664;BME280;53333;51.976;20.144;2022-08-19T02:49:08;99737.69;;;22.54;65.12
36664;BME280;53333;51.976;20.144;2022-08-19T02:51:43;99740.41;;;22.54;64.78
36664;BME280;53333;51.976;20.144;2022-08-19T02:54:18;99750.63;;;22.52;65.01
36664;BME280;53333;51.976;20.144;2022-08-19T02:56:51;99739.91;;;22.50;65.15
36664;BME280;53333;51.976;20.144;2022-08-19T02:59:29;99746.34;;;22.49;64.94
36664;BME280;53333;51.976;20.144;2022-08-19T03:02:03;99732.22;;;22.45;65.21
36664;BME280;53333;51.976;20.144;2022-08-19T03:04:36;99731.53;;;22.43;65.43
36664;BME280;53333;51.976;20.144;2022-08-19T03:07:12;99730.81;;;22.41;65.22
36664;BME280;53333;51.976;20.144;2022-08-19T03:09:46;99728.44;;;22.38;65.46
36664;BME280;53333;51.976;20.144;2022-08-19T03:12:20;99731.16;;;22.38;65.62
36664;BME280;53333;51.976;20.144;2022-08-19T03:14:55;99725.03;;;22.36;65.33
36664;BME280;53333;51.976;20.144;2022-08-19T03:17:29;99729.63;;;22.36;65.58
36664;BME280;53333;51.976;20.144;2022-08-19T03:20:03;99728.75;;;22.35;65.62
36664;BME280;53333;51.976;20.144;2022-08-19T03:22:37;99732.34;;;22.36;65.53
36664;BME280;53333;51.976;20.144;2022-08-19T03:25:11;99739.78;;;22.34;65.81
36664;BME280;53333;51.976;20.144;2022-08-19T03:27:45;99740.13;;;22.30;65.87
36664;BME280;53333;51.976;20.144;2022-08-19T03:30:24;99742.84;;;22.30;65.54
36664;BME280;53333;51.976;20.144;2022-08-19T03:32:58;99747.44;;;22.30;65.70
36664;BME280;53333;51.976;20.144;2022-08-19T03:35:32;99741.16;;;22.29;65.72
36664;BME280;53333;51.976;20.144;2022-08-19T03:38:08;99745.72;;;22.29;65.74
36664;BME280;53333;51.976;20.144;2022-08-19T03:40:42;99740.13;;;22.30;65.77
36664;BME280;53333;51.976;20.144;2022-08-19T03:43:16;99742.13;;;22.28;65.73
36664;BME280;53333;51.976;20.144;2022-08-19T03:46:01;99734.66;;;22.30;65.98
36664;BME280;53333;51.976;20.144;2022-08-19T03:48:37;99728.38;;;22.30;66.06
36664;BME280;53333;51.976;20.144;2022-08-19T03:51:16;99730.09;;;22.31;65.74
36664;BME280;53333;51.976;20.144;2022-08-19T03:54:03;99729.94;;;22.33;65.57
36664;BME280;53333;51.976;20.144;2022-08-19T03:56:39;99729.78;;;22.34;65.81
36664;BME280;53333;51.976;20.144;2022-08-19T03:59:16;99724.03;;;22.37;65.85
36664;BME280;53333;51.976;20.144;2022-08-19T04:01:52;99725.56;;;22.40;65.77
36664;BME280;53333;51.976;20.144;2022-08-19T04:04:26;99727.94;;;22.43;65.38
36664;BME280;53333;51.976;20.144;2022-08-19T04:07:03;99723.22;;;22.45;65.65
36664;BME280;53333;51.976;20.144;2022-08-19T04:09:37;99731.03;;;22.48;65.16
36664;BME280;53333;51.976;20.144;2022-08-19T04:12:10;99736.31;;;22.49;65.65
36664;BME280;53333;51.976;20.144;2022-08-19T04:14:44;99746.03;;;22.52;65.29
36664;BME280;53333;51.976;20.144;2022-08-19T04:17:19;99746.88;;;22.53;65.28
36664;BME280;53333;51.976;20.144;2022-08-19T04:19:53;99756.75;;;22.54;65.38
36664;BME280;53333;51.976;20.144;2022-08-19T04:22:27;99750.31;;;22.55;65.50
36664;BME280;53333;51.976;20.144;2022-08-19T04:25:01;99751.81;;;22.57;65.47
36664;BME280;53333;51.976;20.144;2022-08-19T04:27:34;99738.94;;;22.59;64.94
36664;BME280;53333;51.976;20.144;2022-08-19T04:30:09;99736.06;;;22.61;65.07
36664;BME280;53333;51.976;20.144;2022-08-19T04:32:44;99735.69;;;22.64;65.19
36664;BME280;53333;51.976;20.144;2022-08-19T04:35:18;99731.66;;;22.68;65.05
36664;BME280;53333;51.976;20.144;2022-08-19T04:37:55;99742.88;;;22.73;64.84
36664;BME280;53333;51.976;20.144;2022-08-19T04:40:29;99758.56;;;22.79;64.71
36664;BME280;53333;51.976;20.144;2022-08-19T04:43:20;99756.75;;;22.88;64.55
36664;BME280;53333;51.976;20.144;2022-08-19T04:45:56;99754.22;;;22.95;64.21
36664;BME280;53333;51.976;20.144;2022-08-19T04:48:34;99755.97;;;23.04;64.52
36664;BME280;53333;51.976;20.144;2022-08-19T04:51:15;99755.84;;;23.14;63.94
36664;BME280;53333;51.976;20.144;2022-08-19T04:53:49;99761.31;;;23.22;63.69
36664;BME280;53333;51.976;20.144;2022-08-19T04:56:23;99753.47;;;23.27;64.11
36664;BME280;53333;51.976;20.144;2022-08-19T04:58:59;99759.97;;;23.34;63.73
36664;BME280;53333;51.976;20.144;2022-08-19T05:01:35;99758.09;;;23.43;63.82
36664;BME280;53333;51.976;20.144;2022-08-19T05:04:10;99757.28;;;23.51;63.34
36664;BME280;53333;51.976;20.144;2022-08-19T05:06:45;99745.53;;;23.58;62.98
36664;BME280;53333;51.976;20.144;2022-08-19T05:09:19;99738.19;;;23.67;62.90
36664;BME280;53333;51.976;20.144;2022-08-19T05:11:53;99742.81;;;23.75;63.05
36664;BME280;53333;51.976;20.144;2022-08-19T05:14:27;99736.50;;;23.83;62.34
36664;BME280;53333;51.976;20.144;2022-08-19T05:17:01;99733.13;;;23.89;62.57
36664;BME280;53333;51.976;20.144;2022-08-19T05:19:56;99726.63;;;24.06;62.13
36664;BME280;53333;51.976;20.144;2022-08-19T05:22:47;99725.09;;;24.04;61.99
36664;BME280;53333;51.976;20.144;2022-08-19T05:25:21;99728.31;;;24.07;62.26
36664;BME280;53333;51.976;20.144;2022-08-19T05:27:57;99736.69;;;24.14;62.04
36664;BME280;53333;51.976;20.144;2022-08-19T05:30:31;99735.63;;;24.23;61.63
36664;BME280;53333;51.976;20.144;2022-08-19T05:33:18;99736.31;;;24.34;61.70
36664;BME280;53333;51.976;20.144;2022-08-19T05:35:54;99734.91;;;24.46;61.24
36664;BME280;53333;51.976;20.144;2022-08-19T05:38:28;99745.47;;;24.57;60.91
36664;BME280;53333;51.976;20.144;2022-08-19T05:41:06;99747.66;;;24.70;60.67
36664;BME280;53333;51.976;20.144;2022-08-19T05:43:40;99745.88;;;24.86;59.97
36664;BME280;53333;51.976;20.144;2022-08-19T05:46:17;99742.56;;;24.98;59.86
36664;BME280;53333;51.976;20.144;2022-08-19T05:48:59;99746.78;;;25.09;59.37
36664;BME280;53333;51.976;20.144;2022-08-19T05:51:35;99744.69;;;25.19;59.54
36664;BME280;53333;51.976;20.144;2022-08-19T05:54:09;99748.06;;;25.30;59.14
36664;BME280;53333;51.976;20.144;2022-08-19T05:56:45;99753.94;;;25.42;59.14
36664;BME280;53333;51.976;20.144;2022-08-19T05:59:20;99758.44;;;25.58;58.78
36664;BME280;53333;51.976;20.144;2022-08-19T06:01:56;99771.31;;;25.72;58.62
36664;BME280;53333;51.976;20.144;2022-08-19T06:04:30;99760.47;;;25.87;58.16
36664;BME280;53333;51.976;20.144;2022-08-19T06:07:05;99745.16;;;26.01;58.37
36664;BME280;53333;51.976;20.144;2022-08-19T06:09:52;99748.66;;;26.09;57.82
36664;BME280;53333;51.976;20.144;2022-08-19T06:12:32;99756.69;;;26.26;57.86
36664;BME280;53333;51.976;20.144;2022-08-19T06:15:09;99757.84;;;26.46;56.97
36664;BME280;53333;51.976;20.144;2022-08-19T06:17:43;99756.94;;;26.69;56.34
36664;BME280;53333;51.976;20.144;2022-08-19T06:20:17;99751.66;;;26.82;55.86
36664;BME280;53333;51.976;20.144;2022-08-19T06:23:12;99743.59;;;26.96;55.58
36664;BME280;53333;51.976;20.144;2022-08-19T06:25:48;99747.16;;;27.11;55.16
36664;BME280;53333;51.976;20.144;2022-08-19T06:28:21;99751.38;;;27.29;54.94
36664;BME280;53333;51.976;20.144;2022-08-19T06:30:55;99769.31;;;27.46;54.02
36664;BME280;53333;51.976;20.144;2022-08-19T06:33:29;99759.94;;;27.56;53.72
36664;BME280;53333;51.976;20.144;2022-08-19T06:36:03;99764.50;;;27.70;53.32
36664;BME280;53333;51.976;20.144;2022-08-19T06:38:38;99754.28;;;27.85;52.61
36664;BME280;53333;51.976;20.144;2022-08-19T06:41:12;99749.59;;;28.01;52.38
36664;BME280;53333;51.976;20.144;2022-08-19T06:43:46;99768.72;;;28.16;51.76
36664;BME280;53333;51.976;20.144;2022-08-19T06:46:25;99763.47;;;28.21;51.70
36664;BME280;53333;51.976;20.144;2022-08-19T06:48:59;99757.38;;;28.25;51.31
36664;BME280;53333;51.976;20.144;2022-08-19T06:51:33;99762.50;;;28.35;50.94
36664;BME280;53333;51.976;20.144;2022-08-19T06:54:15;99746.34;;;28.47;51.20
36664;BME280;53333;51.976;20.144;2022-08-19T06:56:51;99751.69;;;28.55;50.60
36664;BME280;53333;51.976;20.144;2022-08-19T06:59:25;99755.56;;;28.61;51.15
36664;BME280;53333;51.976;20.144;2022-08-19T07:02:02;99746.47;;;28.67;50.94
36664;BME280;53333;51.976;20.144;2022-08-19T07:04:37;99748.88;;;28.77;50.25
36664;BME280;53333;51.976;20.144;2022-08-19T07:07:14;99759.03;;;28.83;49.46
36664;BME280;53333;51.976;20.144;2022-08-19T07:09:53;99747.44;;;28.88;49.40
36664;BME280;53333;51.976;20.144;2022-08-19T07:12:32;99743.88;;;28.94;49.49
36664;BME280;53333;51.976;20.144;2022-08-19T07:15:10;99748.56;;;29.07;49.39
36664;BME280;53333;51.976;20.144;2022-08-19T07:17:43;99752.84;;;29.16;49.11
36664;BME280;53333;51.976;20.144;2022-08-19T07:20:23;99751.22;;;29.28;48.69
36664;BME280;53333;51.976;20.144;2022-08-19T07:22:59;99747.25;;;29.38;48.65
36664;BME280;53333;51.976;20.144;2022-08-19T07:25:39;99759.97;;;29.52;48.38
36664;BME280;53333;51.976;20.144;2022-08-19T07:28:13;99754.06;;;29.62;48.01
36664;BME280;53333;51.976;20.144;2022-08-19T07:30:55;99748.34;;;29.70;47.38
36664;BME280;53333;51.976;20.144;2022-08-19T07:33:29;99745.38;;;29.78;47.84
36664;BME280;53333;51.976;20.144;2022-08-19T07:36:06;99741.00;;;29.84;47.47
36664;BME280;53333;51.976;20.144;2022-08-19T07:38:44;99752.00;;;29.91;47.06
36664;BME280;53333;51.976;20.144;2022-08-19T07:41:23;99743.72;;;30.11;46.32
36664;BME280;53333;51.976;20.144;2022-08-19T07:43:58;99738.22;;;30.24;45.99
36664;BME280;53333;51.976;20.144;2022-08-19T07:46:38;99731.25;;;30.41;45.37
36664;BME280;53333;51.976;20.144;2022-08-19T07:49:12;99731.41;;;30.53;45.65
36664;BME280;53333;51.976;20.144;2022-08-19T07:51:52;99743.66;;;30.71;44.62
36664;BME280;53333;51.976;20.144;2022-08-19T07:54:27;99740.88;;;30.77;44.06
36664;BME280;53333;51.976;20.144;2022-08-19T07:57:04;99749.97;;;30.85;43.87
36664;BME280;53333;51.976;20.144;2022-08-19T07:59:38;99757.59;;;30.96;43.27
36664;BME280;53333;51.976;20.144;2022-08-19T08:02:11;99765.41;;;31.06;43.38
36664;BME280;53333;51.976;20.144;2022-08-19T08:04:45;99748.56;;;31.21;43.65
36664;BME280;53333;51.976;20.144;2022-08-19T08:07:38;99754.59;;;31.43;43.18
36664;BME280;53333;51.976;20.144;2022-08-19T08:10:29;99757.00;;;31.71;42.40
36664;BME280;53333;51.976;20.144;2022-08-19T08:13:05;99749.19;;;31.93;41.72
36664;BME280;53333;51.976;20.144;2022-08-19T08:15:41;99757.28;;;32.20;41.16
36664;BME280;53333;51.976;20.144;2022-08-19T08:18:16;99753.31;;;32.53;40.96
36664;BME280;53333;51.976;20.144;2022-08-19T08:20:50;99769.34;;;32.88;40.81
36664;BME280;53333;51.976;20.144;2022-08-19T08:23:24;99767.09;;;33.15;39.34
36664;BME280;53333;51.976;20.144;2022-08-19T08:25:58;99772.44;;;33.47;38.58
36664;BME280;53333;51.976;20.144;2022-08-19T08:28:34;99791.00;;;33.77;37.79
36664;BME280;53333;51.976;20.144;2022-08-19T08:31:09;99798.06;;;34.15;37.28
36664;BME280;53333;51.976;20.144;2022-08-19T08:33:43;99787.13;;;34.67;36.15
36664;BME280;53333;51.976;20.144;2022-08-19T08:36:17;99790.75;;;35.44;35.29
36664;BME280;53333;51.976;20.144;2022-08-19T08:38:51;99785.13;;;36.18;33.44
36664;BME280;53333;51.976;20.144;2022-08-19T08:41:37;99795.44;;;36.91;32.24
36664;BME280;53333;51.976;20.144;2022-08-19T08:44:19;99792.84;;;37.51;31.00
36664;BME280;53333;51.976;20.144;2022-08-19T08:46:57;99798.88;;;37.97;30.13
36664;BME280;53333;51.976;20.144;2022-08-19T08:49:39;99800.75;;;38.51;29.41
36664;BME280;53333;51.976;20.144;2022-08-19T08:52:18;99797.63;;;38.90;28.62
36664;BME280;53333;51.976;20.144;2022-08-19T08:54:58;99793.06;;;39.16;28.33
36664;BME280;53333;51.976;20.144;2022-08-19T08:57:36;99792.84;;;39.38;27.51
36664;BME280;53333;51.976;20.144;2022-08-19T09:00:18;99785.66;;;39.58;27.46
36664;BME280;53333;51.976;20.144;2022-08-19T09:02:53;99798.81;;;39.78;26.83
36664;BME280;53333;51.976;20.144;2022-08-19T09:05:47;99796.63;;;40.06;26.79
36664;BME280;53333;51.976;20.144;2022-08-19T09:08:36;99794.97;;;40.15;26.76
36664;BME280;53333;51.976;20.144;2022-08-19T09:11:21;99809.78;;;40.26;26.71
36664;BME280;53333;51.976;20.144;2022-08-19T09:14:23;99802.78;;;40.39;26.52
36664;BME280;53333;51.976;20.144;2022-08-19T09:17:24;99807.53;;;40.54;25.85
36664;BME280;53333;51.976;20.144;2022-08-19T09:20:06;99810.31;;;40.59;26.58
36664;BME280;53333;51.976;20.144;2022-08-19T09:22:47;99804.13;;;40.67;26.15
36664;BME280;53333;51.976;20.144;2022-08-19T09:25:22;99791.78;;;40.78;25.62
36664;BME280;53333;51.976;20.144;2022-08-19T09:28:00;99804.06;;;40.93;25.21
36664;BME280;53333;51.976;20.144;2022-08-19T09:30:43;99798.69;;;41.12;25.35
36664;BME280;53333;51.976;20.144;2022-08-19T09:33:18;99795.03;;;41.16;25.02
36664;BME280;53333;51.976;20.144;2022-08-19T09:36:02;99800.56;;;41.37;24.78
36664;BME280;53333;51.976;20.144;2022-08-19T09:38:39;99789.31;;;41.47;24.07
36664;BME280;53333;51.976;20.144;2022-08-19T09:41:17;99790.34;;;41.56;24.02
36664;BME280;53333;51.976;20.144;2022-08-19T09:43:53;99788.06;;;41.64;23.74
36664;BME280;53333;51.976;20.144;2022-08-19T09:46:28;99790.59;;;41.65;23.69
36664;BME280;53333;51.976;20.144;2022-08-19T09:49:09;99788.91;;;41.64;23.78
36664;BME280;53333;51.976;20.144;2022-08-19T09:51:51;99793.91;;;41.72;23.54
36664;BME280;53333;51.976;20.144;2022-08-19T09:54:28;99797.00;;;41.76;23.41
36664;BME280;53333;51.976;20.144;2022-08-19T09:57:02;99788.53;;;41.81;23.21
36664;BME280;53333;51.976;20.144;2022-08-19T09:59:39;99799.72;;;41.86;22.94
36664;BME280;53333;51.976;20.144;2022-08-19T10:02:16;99782.03;;;41.46;23.46
36664;BME280;53333;51.976;20.144;2022-08-19T10:04:54;99764.59;;;41.54;23.36
36664;BME280;53333;51.976;20.144;2022-08-19T10:07:53;99772.94;;;41.65;23.31
36664;BME280;53333;51.976;20.144;2022-08-19T10:10:27;99781.78;;;41.87;22.83
36664;BME280;53333;51.976;20.144;2022-08-19T10:13:04;99777.72;;;42.04;22.55
36664;BME280;53333;51.976;20.144;2022-08-19T10:15:38;99777.94;;;42.07;22.59
36664;BME280;53333;51.976;20.144;2022-08-19T10:18:21;99771.72;;;42.16;23.37
36664;BME280;53333;51.976;20.144;2022-08-19T10:21:05;99770.53;;;42.27;22.71
36664;BME280;53333;51.976;20.144;2022-08-19T10:23:44;99764.59;;;42.28;22.68
36664;BME280;53333;51.976;20.144;2022-08-19T10:26:19;99764.59;;;42.28;22.89
36664;BME280;53333;51.976;20.144;2022-08-19T10:28:57;99761.50;;;42.30;22.67
36664;BME280;53333;51.976;20.144;2022-08-19T10:31:33;99764.81;;;42.37;22.09
36664;BME280;53333;51.976;20.144;2022-08-19T10:34:28;99757.47;;;42.41;22.49
36664;BME280;53333;51.976;20.144;2022-08-19T10:37:05;99760.16;;;42.52;22.65
36664;BME280;53333;51.976;20.144;2022-08-19T10:39:41;99771.09;;;42.53;22.70
36664;BME280;53333;51.976;20.144;2022-08-19T10:42:16;99759.38;;;42.46;22.35
36664;BME280;53333;51.976;20.144;2022-08-19T10:44:50;99764.75;;;42.42;22.16
36664;BME280;53333;51.976;20.144;2022-08-19T10:47:24;99767.63;;;42.37;21.77
36664;BME280;53333;51.976;20.144;2022-08-19T10:50:03;99763.25;;;42.26;22.55
36664;BME280;53333;51.976;20.144;2022-08-19T10:53:03;99745.31;;;42.22;22.44
36664;BME280;53333;51.976;20.144;2022-08-19T10:55:40;99755.47;;;42.18;22.31
36664;BME280;53333;51.976;20.144;2022-08-19T10:58:31;99741.09;;;42.24;22.55
36664;BME280;53333;51.976;20.144;2022-08-19T11:01:05;99755.66;;;42.26;22.47
36664;BME280;53333;51.976;20.144;2022-08-19T11:03:39;99746.50;;;42.16;22.41
36664;BME280;53333;51.976;20.144;2022-08-19T11:06:12;99752.81;;;41.97;22.94
36664;BME280;53333;51.976;20.144;2022-08-19T11:08:48;99745.38;;;41.82;23.33
36664;BME280;53333;51.976;20.144;2022-08-19T11:11:21;99748.56;;;41.70;23.48
36664;BME280;53333;51.976;20.144;2022-08-19T11:13:56;99746.63;;;41.61;23.64
36664;BME280;53333;51.976;20.144;2022-08-19T11:16:29;99746.97;;;41.54;23.42
36664;BME280;53333;51.976;20.144;2022-08-19T11:19:03;99745.09;;;41.44;23.58
36664;BME280;53333;51.976;20.144;2022-08-19T11:21:39;99730.34;;;41.28;23.77
36664;BME280;53333;51.976;20.144;2022-08-19T11:24:18;99723.16;;;41.01;23.63
36664;BME280;53333;51.976;20.144;2022-08-19T11:26:54;99730.31;;;40.58;24.28
36664;BME280;53333;51.976;20.144;2022-08-19T11:29:31;99727.88;;;40.10;25.39
36664;BME280;53333;51.976;20.144;2022-08-19T11:32:08;99730.06;;;39.67;25.95
36664;BME280;53333;51.976;20.144;2022-08-19T11:34:42;99730.25;;;39.19;26.28
36664;BME280;53333;51.976;20.144;2022-08-19T11:37:16;99732.00;;;38.72;27.14
36664;BME280;53333;51.976;20.144;2022-08-19T11:39:51;99722.00;;;38.33;27.93
36664;BME280;53333;51.976;20.144;2022-08-19T11:42:25;99714.44;;;37.91;28.41
36664;BME280;53333;51.976;20.144;2022-08-19T11:45:16;99706.00;;;37.54;28.24
36664;BME280;53333;51.976;20.144;2022-08-19T11:47:50;99717.16;;;37.26;29.70
36664;BME280;53333;51.976;20.144;2022-08-19T11:50:24;99710.16;;;37.02;29.56
36664;BME280;53333;51.976;20.144;2022-08-19T11:52:58;99705.47;;;36.80;30.28
36664;BME280;53333;51.976;20.144;2022-08-19T11:55:36;99717.53;;;36.69;30.31
36664;BME280;53333;51.976;20.144;2022-08-19T11:58:16;99698.25;;;36.62;30.79
36664;BME280;53333;51.976;20.144;2022-08-19T12:00:50;99685.69;;;36.60;30.45
36664;BME280;53333;51.976;20.144;2022-08-19T12:03:24;99691.66;;;36.68;29.76
36664;BME280;53333;51.976;20.144;2022-08-19T12:05:58;99689.47;;;36.70;30.24
36664;BME280;53333;51.976;20.144;2022-08-19T12:08:32;99684.00;;;36.76;30.42
36664;BME280;53333;51.976;20.144;2022-08-19T12:11:07;99689.56;;;36.76;29.66
36664;BME280;53333;51.976;20.144;2022-08-19T12:13:41;99675.38;;;36.77;30.13
36664;BME280;53333;51.976;20.144;2022-08-19T12:16:18;99673.88;;;36.69;29.83
36664;BME280;53333;51.976;20.144;2022-08-19T12:18:53;99686.38;;;36.67;29.61
36664;BME280;53333;51.976;20.144;2022-08-19T12:21:27;99686.03;;;36.63;30.13
36664;BME280;53333;51.976;20.144;2022-08-19T12:24:03;99678.72;;;36.57;30.29
36664;BME280;53333;51.976;20.144;2022-08-19T12:26:39;99684.28;;;36.57;30.88
36664;BME280;53333;51.976;20.144;2022-08-19T12:29:24;99685.66;;;36.54;30.35
36664;BME280;53333;51.976;20.144;2022-08-19T12:32:02;99679.09;;;36.44;29.83
36664;BME280;53333;51.976;20.144;2022-08-19T12:34:36;99659.00;;;36.36;30.47
36664;BME280;53333;51.976;20.144;2022-08-19T12:37:10;99670.03;;;36.31;30.69
36664;BME280;53333;51.976;20.144;2022-08-19T12:39:44;99671.97;;;36.31;30.77
36664;BME280;53333;51.976;20.144;2022-08-19T12:42:19;99660.19;;;36.24;30.66
36664;BME280;53333;51.976;20.144;2022-08-19T12:44:54;99670.63;;;36.16;31.04
36664;BME280;53333;51.976;20.144;2022-08-19T12:47:28;99668.09;;;36.15;30.80
36664;BME280;53333;51.976;20.144;2022-08-19T12:50:05;99668.94;;;36.15;30.58
36664;BME280;53333;51.976;20.144;2022-08-19T12:52:42;99668.94;;;36.15;31.13
36664;BME280;53333;51.976;20.144;2022-08-19T12:55:25;99670.06;;;36.14;31.21
36664;BME280;53333;51.976;20.144;2022-08-19T12:58:01;99665.91;;;36.17;30.97
36664;BME280;53333;51.976;20.144;2022-08-19T13:00:35;99666.94;;;36.11;31.42
36664;BME280;53333;51.976;20.144;2022-08-19T13:03:09;99666.34;;;36.09;32.10
36664;BME280;53333;51.976;20.144;2022-08-19T13:05:42;99665.44;;;36.03;31.31
36664;BME280;53333;51.976;20.144;2022-08-19T13:08:16;99660.72;;;36.04;31.83
36664;BME280;53333;51.976;20.144;2022-08-19T13:10:50;99659.88;;;36.03;31.42
36664;BME280;53333;51.976;20.144;2022-08-19T13:13:25;99648.69;;;35.98;31.45
36664;BME280;53333;51.976;20.144;2022-08-19T13:16:00;99660.28;;;35.95;31.35
36664;BME280;53333;51.976;20.144;2022-08-19T13:18:35;99665.84;;;35.95;31.69
36664;BME280;53333;51.976;20.144;2022-08-19T13:21:10;99658.38;;;35.95;31.13
36664;BME280;53333;51.976;20.144;2022-08-19T13:23:45;99656.69;;;35.94;30.67
36664;BME280;53333;51.976;20.144;2022-08-19T13:26:19;99661.66;;;35.92;30.49
36664;BME280;53333;51.976;20.144;2022-08-19T13:28:54;99676.50;;;35.81;31.16
36664;BME280;53333;51.976;20.144;2022-08-19T13:31:45;99674.84;;;35.68;31.05
36664;BME280;53333;51.976;20.144;2022-08-19T13:34:37;99669.13;;;35.58;31.47
36664;BME280;53333;51.976;20.144;2022-08-19T13:37:11;99679.56;;;35.51;30.73
36664;BME280;53333;51.976;20.144;2022-08-19T13:39:45;99677.78;;;35.44;30.80
36664;BME280;53333;51.976;20.144;2022-08-19T13:42:19;99676.84;;;35.39;31.59